createdAt,value
2022-12-13T00:01:21.933Z,46.13
2022-12-13T00:03:49.643Z,46.07
2022-12-13T00:06:18.607Z,48.70
2022-12-13T00:08:46.269Z,46.37
2022-12-13T00:11:15.206Z,45.97
2022-12-13T00:13:44.051Z,47.13
2022-12-13T00:16:13.746Z,48.27
2022-12-13T00:18:41.472Z,51.00
2022-12-13T00:21:10.903Z,47.77
2022-12-13T00:23:39.905Z,47.60
2022-12-13T00:26:10.890Z,46.93
2022-12-13T00:28:38.621Z,47.73
2022-12-13T00:31:34.265Z,46.30
2022-12-13T00:33:54.744Z,48.90
2022-12-13T00:36:22.533Z,44.50
2022-12-13T00:39:00.506Z,47.10
2022-12-13T00:41:30.827Z,46.83
2022-12-13T00:43:58.651Z,47.40
2022-12-13T00:46:26.764Z,51.73
2022-12-13T00:48:56.949Z,51.83
2022-12-13T00:51:25.482Z,44.37
2022-12-13T00:53:56.110Z,45.17
2022-12-13T00:56:26.423Z,47.07
2022-12-13T00:58:55.240Z,44.60
2022-12-13T01:01:25.240Z,46.70
2022-12-13T01:03:54.707Z,45.37
2022-12-13T01:06:27.286Z,46.57
2022-12-13T01:08:56.304Z,47.87
2022-12-13T01:11:24.018Z,46.90
2022-12-13T01:13:51.639Z,47.93
2022-12-13T01:16:19.652Z,48.33
2022-12-13T01:18:48.259Z,50.50
2022-12-13T01:21:17.755Z,50.90
2022-12-13T01:23:46.314Z,47.30
2022-12-13T01:26:17.916Z,47.47
2022-12-13T01:28:45.587Z,48.20
2022-12-13T01:31:16.085Z,50.63
2022-12-13T01:33:44.157Z,49.40
2022-12-13T01:36:15.908Z,50.13
2022-12-13T01:38:43.599Z,51.90
2022-12-13T01:41:17.475Z,49.23
2022-12-13T01:43:56.822Z,52.40
2022-12-13T01:46:24.548Z,49.90
2022-12-13T01:48:59.159Z,46.20
2022-12-13T01:51:30.690Z,48.33
2022-12-13T01:54:02.486Z,51.40
2022-12-13T01:56:34.775Z,46.07
2022-12-13T01:59:05.924Z,48.37
2022-12-13T02:01:34.142Z,43.30
2022-12-13T02:04:01.788Z,47.83
2022-12-13T02:06:34.833Z,48.53
2022-12-13T02:09:04.047Z,46.57
2022-12-13T02:11:31.900Z,45.70
2022-12-13T02:13:59.498Z,46.37
2022-12-13T02:16:42.831Z,46.00
2022-12-13T02:19:39.135Z,50.40
2022-12-13T02:22:23.442Z,51.30
2022-12-13T02:25:05.613Z,50.00
2022-12-13T02:27:51.317Z,49.40
2022-12-13T02:30:35.684Z,50.13
2022-12-13T02:33:22.132Z,47.27
2022-12-13T02:35:56.546Z,51.40
2022-12-13T02:38:30.685Z,47.70
2022-12-13T02:41:06.320Z,46.03
2022-12-13T02:43:39.000Z,47.60
2022-12-13T02:46:18.076Z,48.93
2022-12-13T02:48:48.087Z,50.07
2022-12-13T02:51:17.471Z,50.00
2022-12-13T02:53:46.319Z,48.93
2022-12-13T02:56:13.991Z,47.87
2022-12-13T02:58:44.359Z,47.57
2022-12-13T03:01:29.457Z,48.47
2022-12-13T03:04:08.516Z,48.70
2022-12-13T03:06:44.650Z,48.57
2022-12-13T03:09:25.458Z,48.37
2022-12-13T03:12:28.320Z,49.77
2022-12-13T03:15:00.868Z,49.47
2022-12-13T03:17:37.222Z,48.57
2022-12-13T03:20:22.568Z,50.07
2022-12-13T03:22:51.053Z,50.60
2022-12-13T03:25:31.318Z,50.27
2022-12-13T03:28:02.496Z,46.93
2022-12-13T03:30:31.418Z,48.93
2022-12-13T03:33:00.811Z,45.47
2022-12-13T03:35:34.858Z,47.40
2022-12-13T03:38:12.512Z,43.60
2022-12-13T03:40:51.225Z,44.60
2022-12-13T03:43:22.280Z,47.93
2022-12-13T03:45:51.193Z,49.67
2022-12-13T03:48:21.652Z,47.03
2022-12-13T03:50:50.844Z,45.00
2022-12-13T03:53:22.389Z,47.80
2022-12-13T03:56:01.493Z,46.40
2022-12-13T03:58:34.673Z,44.80
2022-12-13T04:01:05.039Z,43.23
2022-12-13T04:03:34.046Z,45.10
2022-12-13T04:06:01.644Z,46.23
2022-12-13T04:08:29.302Z,43.73
2022-12-13T04:10:56.979Z,46.33
2022-12-13T04:13:35.439Z,46.77
2022-12-13T04:16:03.896Z,45.37
2022-12-13T04:18:31.524Z,47.10
2022-12-13T04:21:00.489Z,49.20
2022-12-13T04:23:28.075Z,47.40
2022-12-13T04:25:55.673Z,45.40
2022-12-13T04:28:23.406Z,47.13
2022-12-13T04:30:53.616Z,49.30
2022-12-13T04:33:21.777Z,47.07
2022-12-13T04:35:49.680Z,49.20
2022-12-13T04:38:18.809Z,49.77
2022-12-13T04:40:46.440Z,48.60
2022-12-13T04:43:14.152Z,51.83
2022-12-13T04:45:41.962Z,48.20
2022-12-13T04:48:09.752Z,47.40
2022-12-13T04:50:37.938Z,48.43
2022-12-13T04:53:05.660Z,46.20
2022-12-13T04:55:34.615Z,46.13
2022-12-13T04:58:02.269Z,47.43
2022-12-13T05:00:29.887Z,50.17
2022-12-13T05:02:57.539Z,47.87
2022-12-13T05:05:25.180Z,49.80
2022-12-13T05:07:52.817Z,46.87
2022-12-13T05:10:35.849Z,50.37
2022-12-13T05:13:07.637Z,47.40
2022-12-13T05:15:35.951Z,49.03
2022-12-13T05:18:10.533Z,50.73
2022-12-13T05:20:39.098Z,51.70
2022-12-13T05:23:07.011Z,48.13
2022-12-13T05:25:35.082Z,50.13
2022-12-13T05:28:08.833Z,49.93
2022-12-13T05:30:51.611Z,49.77
2022-12-13T05:33:19.352Z,49.23
2022-12-13T05:35:47.272Z,51.43
2022-12-13T05:38:15.054Z,53.47
2022-12-13T05:40:42.844Z,53.30
2022-12-13T05:43:22.068Z,53.63
2022-12-13T05:45:51.979Z,52.33
2022-12-13T05:48:24.530Z,55.93
2022-12-13T05:51:10.503Z,60.83
2022-12-13T05:53:39.572Z,53.03
2022-12-13T05:56:07.982Z,53.07
2022-12-13T05:58:36.372Z,51.67
2022-12-13T06:01:10.471Z,51.67
2022-12-13T06:03:38.750Z,51.60
2022-12-13T06:06:08.571Z,63.80
2022-12-13T06:08:36.857Z,54.00
2022-12-13T06:11:11.045Z,54.07
2022-12-13T06:13:42.813Z,50.90
2022-12-13T06:16:23.831Z,50.67
2022-12-13T06:19:01.014Z,51.83
2022-12-13T06:21:40.820Z,52.90
2022-12-13T06:24:14.317Z,93.17
2022-12-13T06:26:41.910Z,71.07
2022-12-13T06:29:10.365Z,64.47
2022-12-13T06:31:39.444Z,54.87
2022-12-13T06:34:14.617Z,49.83
2022-12-13T06:36:42.672Z,51.53
2022-12-13T06:39:10.322Z,50.37
2022-12-13T06:41:37.990Z,53.60
2022-12-13T06:44:06.226Z,56.03
2022-12-13T06:46:34.028Z,51.27
2022-12-13T06:49:02.988Z,51.47
2022-12-13T06:51:32.943Z,51.10
2022-12-13T06:54:01.460Z,47.13
2022-12-13T06:56:30.205Z,49.80
2022-12-13T06:59:01.498Z,50.50
2022-12-13T07:01:37.266Z,45.77
2022-12-13T07:04:30.356Z,49.53
2022-12-13T07:06:56.678Z,47.40
2022-12-13T07:09:30.503Z,48.20
2022-12-13T07:11:58.164Z,48.90
2022-12-13T07:14:26.065Z,49.57
2022-12-13T07:16:59.451Z,49.60
2022-12-13T07:19:35.570Z,49.00
2022-12-13T07:22:06.160Z,48.87
2022-12-13T07:24:34.943Z,49.57
2022-12-13T07:27:03.088Z,49.60
2022-12-13T07:29:30.727Z,50.37
2022-12-13T07:32:01.299Z,53.90
2022-12-13T07:34:29.782Z,53.80
2022-12-13T07:36:58.860Z,53.23
2022-12-13T07:39:27.019Z,52.53
2022-12-13T07:41:55.894Z,52.50
2022-12-13T07:44:23.559Z,49.57
2022-12-13T07:46:51.209Z,48.07
2022-12-13T07:49:18.933Z,49.50
2022-12-13T07:51:46.606Z,50.17
2022-12-13T07:54:17.606Z,48.57
2022-12-13T07:56:45.887Z,49.73
2022-12-13T07:59:13.967Z,53.83
2022-12-13T08:01:41.760Z,49.53
2022-12-13T08:04:09.455Z,50.10
2022-12-13T08:06:37.835Z,51.83
2022-12-13T08:09:06.160Z,52.47
2022-12-13T08:11:35.431Z,49.40
2022-12-13T08:14:03.051Z,49.53
2022-12-13T08:16:31.952Z,51.60
2022-12-13T08:19:04.328Z,49.63
2022-12-13T08:24:24.932Z,49.33
2022-12-13T08:26:53.887Z,52.83
2022-12-13T08:29:23.461Z,50.57
2022-12-13T08:32:01.955Z,49.10
2022-12-13T08:34:29.930Z,49.40
2022-12-13T08:37:01.626Z,50.10
2022-12-13T08:39:34.654Z,51.63
2022-12-13T08:42:14.836Z,52.37
2022-12-13T08:44:46.210Z,53.57
2022-12-13T08:47:24.578Z,47.80
2022-12-13T08:49:54.926Z,50.60
2022-12-13T08:52:23.688Z,47.57
2022-12-13T08:54:51.812Z,48.50
2022-12-13T08:57:20.790Z,48.00
2022-12-13T08:59:48.398Z,48.03
2022-12-13T09:02:16.820Z,46.40
2022-12-13T09:04:44.789Z,49.57
2022-12-13T09:07:12.415Z,50.90
2022-12-13T09:09:40.038Z,46.87
2022-12-13T09:12:11.048Z,47.57
2022-12-13T09:15:00.867Z,47.47
2022-12-13T09:17:37.217Z,46.47
2022-12-13T09:20:10.150Z,46.70
2022-12-13T09:23:01.689Z,48.50
2022-12-13T09:25:36.491Z,50.67
2022-12-13T09:28:05.680Z,48.57
2022-12-13T09:30:34.724Z,48.47
2022-12-13T09:33:17.982Z,48.30
2022-12-13T09:35:49.976Z,47.87
2022-12-13T09:38:17.739Z,47.77
2022-12-13T09:40:48.283Z,48.90
2022-12-13T09:43:31.625Z,48.93
2022-12-13T09:46:22.106Z,50.00
2022-12-13T09:48:53.159Z,53.83
2022-12-13T09:51:43.878Z,49.17
2022-12-13T09:54:19.536Z,48.07
2022-12-13T09:56:51.067Z,50.27
2022-12-13T09:59:20.179Z,50.40
2022-12-13T10:01:49.395Z,48.83
2022-12-13T10:04:17.585Z,49.80
2022-12-13T10:06:45.442Z,47.57
2022-12-13T10:09:15.120Z,49.03
2022-12-13T10:11:50.765Z,47.30
2022-12-13T10:14:24.567Z,45.77
2022-12-13T10:16:57.793Z,48.13
2022-12-13T10:19:30.462Z,47.83
2022-12-13T10:22:01.316Z,46.00
2022-12-13T10:24:36.963Z,47.00
2022-12-13T10:27:13.550Z,48.33
2022-12-13T10:30:07.588Z,46.67
2022-12-13T10:32:46.672Z,44.57
2022-12-13T10:35:26.159Z,45.43
2022-12-13T10:37:54.598Z,45.73
2022-12-13T10:40:33.628Z,45.77
2022-12-13T10:43:08.959Z,44.13
2022-12-13T10:45:36.634Z,46.47
2022-12-13T10:48:06.207Z,49.83
2022-12-13T10:50:34.017Z,45.50
2022-12-13T10:53:02.147Z,45.10
2022-12-13T10:55:33.043Z,49.33
2022-12-13T10:58:03.006Z,48.00
2022-12-13T11:00:35.047Z,47.47
2022-12-13T11:03:02.839Z,46.63
2022-12-13T11:05:34.184Z,48.30
2022-12-13T11:08:16.749Z,48.60
2022-12-13T11:10:44.567Z,49.03
2022-12-13T11:13:26.205Z,46.60
2022-12-13T11:15:56.847Z,47.70
2022-12-13T11:18:27.488Z,51.90
2022-12-13T11:20:59.787Z,49.33
2022-12-13T11:23:31.079Z,50.77
2022-12-13T11:26:06.190Z,48.70
2022-12-13T11:28:49.524Z,51.00
2022-12-13T11:31:26.890Z,49.27
2022-12-13T11:34:05.291Z,51.43
2022-12-13T11:36:42.785Z,50.40
2022-12-13T11:39:18.586Z,50.20
2022-12-13T11:41:55.362Z,50.73
2022-12-13T11:44:30.730Z,51.47
2022-12-13T11:47:00.998Z,52.53
2022-12-13T11:49:39.215Z,51.70
2022-12-13T11:52:15.275Z,51.10
2022-12-13T11:54:53.717Z,51.13
2022-12-13T11:57:34.363Z,51.13
2022-12-13T12:00:12.881Z,50.40
2022-12-13T12:02:45.588Z,52.20
2022-12-13T12:05:28.290Z,51.80
2022-12-13T12:10:52.351Z,52.13
2022-12-13T12:13:24.585Z,51.83
2022-12-13T12:16:02.916Z,50.63
2022-12-13T12:18:30.866Z,55.50
2022-12-13T12:21:09.168Z,55.03
2022-12-13T12:23:53.513Z,54.90
2022-12-13T12:26:30.325Z,52.40
2022-12-13T12:29:12.443Z,51.73
2022-12-13T12:31:50.696Z,53.90
2022-12-13T12:34:30.151Z,53.23
2022-12-13T12:37:07.291Z,51.60
2022-12-13T12:39:45.255Z,51.40
2022-12-13T12:42:27.603Z,54.77
2022-12-13T12:45:17.445Z,54.87
2022-12-13T12:50:54.732Z,55.37
2022-12-13T12:53:35.073Z,55.40
2022-12-13T12:56:19.598Z,54.30
2022-12-13T12:58:54.132Z,54.40
2022-12-13T13:01:43.519Z,55.47
2022-12-13T13:04:14.038Z,54.70
2022-12-13T13:06:54.703Z,56.87
2022-12-13T13:09:31.093Z,54.30
2022-12-13T13:12:29.558Z,56.80
2022-12-13T13:14:52.620Z,54.27
2022-12-13T13:17:47.730Z,55.00
2022-12-13T13:20:23.201Z,54.90
2022-12-13T13:23:10.497Z,58.60
2022-12-13T13:26:00.245Z,54.87
2022-12-13T13:28:29.051Z,57.37
2022-12-13T13:31:05.305Z,57.50
2022-12-13T13:33:46.524Z,57.47
2022-12-13T13:36:47.574Z,56.60
2022-12-13T13:39:19.199Z,60.30
2022-12-13T13:42:09.037Z,56.27
2022-12-13T13:44:56.944Z,55.20
2022-12-13T13:47:38.894Z,58.50
2022-12-13T13:50:57.637Z,57.10
2022-12-13T13:54:00.599Z,58.43
2022-12-13T13:57:03.219Z,57.77
2022-12-13T14:00:12.004Z,54.10
2022-12-13T14:03:12.649Z,59.60
2022-12-13T14:06:31.952Z,55.20
2022-12-13T14:09:21.620Z,58.90
2022-12-13T14:12:21.096Z,56.10
2022-12-13T14:15:32.920Z,57.37
2022-12-13T14:18:53.475Z,56.23
2022-12-13T14:21:29.724Z,58.17
2022-12-13T14:24:07.448Z,57.23
2022-12-13T14:26:46.462Z,59.87
2022-12-13T14:29:25.114Z,57.27
2022-12-13T14:31:54.371Z,61.97
2022-12-13T14:34:24.971Z,57.60
2022-12-13T14:36:58.459Z,57.50
2022-12-13T14:39:29.351Z,55.60
2022-12-13T14:41:59.380Z,62.17
2022-12-13T14:44:29.230Z,57.87
2022-12-13T14:47:01.135Z,56.23
2022-12-13T14:49:31.986Z,58.20
2022-12-13T14:52:03.904Z,56.80
2022-12-13T14:54:41.119Z,58.63
2022-12-13T14:57:16.844Z,58.23
2022-12-13T14:59:50.139Z,58.13
2022-12-13T15:02:30.796Z,61.80
2022-12-13T15:05:00.780Z,54.57
2022-12-13T15:07:32.386Z,58.77
2022-12-13T15:10:02.906Z,59.47
2022-12-13T15:12:32.126Z,56.53
2022-12-13T15:15:02.431Z,56.43
2022-12-13T15:17:34.970Z,58.63
2022-12-13T15:20:03.600Z,57.57
2022-12-13T15:22:31.227Z,57.10
2022-12-13T15:24:59.296Z,56.67
2022-12-13T15:27:27.899Z,58.17
2022-12-13T15:29:56.117Z,57.93
2022-12-13T15:32:24.380Z,56.90
2022-12-13T15:34:53.479Z,56.57
2022-12-13T15:37:29.123Z,59.20
2022-12-13T15:40:01.816Z,59.67
2022-12-13T15:42:34.303Z,57.10
2022-12-13T15:45:06.143Z,57.30
2022-12-13T15:47:34.251Z,55.50
2022-12-13T15:50:05.999Z,55.70
2022-12-13T15:52:35.802Z,57.03
2022-12-13T15:55:28.411Z,55.27
2022-12-13T15:57:58.633Z,54.70
2022-12-13T16:00:30.375Z,58.50
2022-12-13T16:03:09.695Z,57.53
2022-12-13T16:05:39.971Z,59.97
2022-12-13T16:08:20.925Z,59.73
2022-12-13T16:10:53.118Z,56.00
2022-12-13T16:13:26.706Z,56.97
2022-12-13T16:16:00.344Z,58.10
2022-12-13T16:18:45.803Z,59.73
2022-12-13T16:21:14.229Z,60.00
2022-12-13T16:23:48.088Z,59.40
2022-12-13T16:26:23.445Z,57.63
2022-12-13T16:28:51.034Z,60.17
2022-12-13T16:31:20.977Z,59.13
2022-12-13T16:33:49.106Z,59.73
2022-12-13T16:36:16.937Z,59.00
2022-12-13T16:38:44.591Z,59.80
2022-12-13T16:41:14.675Z,63.43
2022-12-13T16:43:51.812Z,60.53
2022-12-13T16:47:12.819Z,60.50
2022-12-13T16:49:19.196Z,58.97
2022-12-13T16:51:48.847Z,60.80
2022-12-13T16:54:17.271Z,59.90
2022-12-13T16:56:44.915Z,61.50
2022-12-13T16:59:15.835Z,59.33
2022-12-13T17:01:44.168Z,63.73
2022-12-13T17:04:19.224Z,60.17
2022-12-13T17:06:48.801Z,60.03
2022-12-13T17:09:16.718Z,60.83
2022-12-13T17:11:44.402Z,60.17
2022-12-13T17:14:12.055Z,61.50
2022-12-13T17:16:41.048Z,58.87
2022-12-13T17:19:10.643Z,62.60
2022-12-13T17:21:38.289Z,60.00
2022-12-13T17:24:06.317Z,60.27
2022-12-13T17:26:35.108Z,57.93
2022-12-13T17:29:03.032Z,60.97
2022-12-13T17:31:35.393Z,59.90
2022-12-13T17:34:05.346Z,57.00
2022-12-13T17:36:33.180Z,59.53
2022-12-13T17:39:00.746Z,58.93
2022-12-13T17:41:28.343Z,57.00
2022-12-13T17:44:00.286Z,58.43
2022-12-13T17:46:27.981Z,59.40
2022-12-13T17:48:56.097Z,60.37
2022-12-13T17:51:25.035Z,57.60
2022-12-13T17:53:52.734Z,59.63
2022-12-13T17:56:20.429Z,57.87
2022-12-13T17:58:48.079Z,56.20
2022-12-13T18:01:17.737Z,55.73
2022-12-13T18:03:45.876Z,58.20
2022-12-13T18:06:13.528Z,61.33
2022-12-13T18:08:44.330Z,56.83
2022-12-13T18:11:32.281Z,55.27
2022-12-13T18:14:00.618Z,58.60
2022-12-13T18:16:35.917Z,56.13
2022-12-13T18:19:06.520Z,56.40
2022-12-13T18:21:35.311Z,56.87
2022-12-13T18:24:05.180Z,58.33
2022-12-13T18:26:32.772Z,54.60
2022-12-13T18:29:00.478Z,58.10
2022-12-13T18:31:28.423Z,58.43
2022-12-13T18:33:56.815Z,56.57
2022-12-13T18:36:26.349Z,56.50
2022-12-13T18:38:54.260Z,54.57
2022-12-13T18:41:24.597Z,55.40
2022-12-13T18:43:59.788Z,59.40
2022-12-13T18:46:29.108Z,55.70
2022-12-13T18:48:57.766Z,59.13
2022-12-13T18:51:26.024Z,55.00
2022-12-13T18:53:54.667Z,56.87
2022-12-13T18:56:24.459Z,55.67
2022-12-13T18:58:53.404Z,59.37
2022-12-13T19:01:22.787Z,54.70
2022-12-13T19:03:50.893Z,57.10
2022-12-13T19:06:20.984Z,56.07
2022-12-13T19:08:49.614Z,56.53
2022-12-13T19:11:17.288Z,56.17
2022-12-13T19:13:46.421Z,56.00
2022-12-13T19:16:16.661Z,55.63
2022-12-13T19:18:44.571Z,54.80
2022-12-13T19:21:15.763Z,54.93
2022-12-13T19:23:43.405Z,53.97
2022-12-13T19:26:13.937Z,52.87
2022-12-13T19:28:43.124Z,55.70
2022-12-13T19:31:13.865Z,51.93
2022-12-13T19:33:42.235Z,54.30
2022-12-13T19:36:10.923Z,51.37
2022-12-13T19:38:38.994Z,52.27
2022-12-13T19:41:10.553Z,53.37
2022-12-13T19:43:38.604Z,51.30
2022-12-13T19:46:06.768Z,50.60
2022-12-13T19:48:37.631Z,51.07
2022-12-13T19:51:07.341Z,50.17
2022-12-13T19:53:35.519Z,50.73
2022-12-13T19:56:03.556Z,51.07
2022-12-13T19:58:31.168Z,51.80
2022-12-13T20:01:03.216Z,52.87
2022-12-13T20:03:33.144Z,52.70
2022-12-13T20:06:03.401Z,49.50
2022-12-13T20:08:31.039Z,47.23
2022-12-13T20:10:59.961Z,51.70
2022-12-13T20:13:28.536Z,51.40
2022-12-13T20:15:56.631Z,52.87
2022-12-13T20:18:24.641Z,52.30
2022-12-13T20:21:11.228Z,50.93
2022-12-13T20:23:48.589Z,50.97
2022-12-13T20:26:18.877Z,50.50
2022-12-13T20:28:46.621Z,54.60
2022-12-13T20:31:16.480Z,50.97
2022-12-13T20:33:44.141Z,50.93
2022-12-13T20:36:24.340Z,52.60
2022-12-13T20:38:55.836Z,50.03
2022-12-13T20:41:24.831Z,48.77
2022-12-13T20:43:54.013Z,49.60
2022-12-13T20:46:22.540Z,54.33
2022-12-13T20:48:50.947Z,49.80
2022-12-13T20:51:22.770Z,51.87
2022-12-13T20:53:51.466Z,54.00
2022-12-13T20:56:22.887Z,52.40
2022-12-13T20:58:51.961Z,53.30
2022-12-13T21:01:21.507Z,51.97
2022-12-13T21:03:49.430Z,51.50
2022-12-13T21:06:17.053Z,50.13
2022-12-13T21:08:54.411Z,52.27
2022-12-13T21:11:28.695Z,50.83
2022-12-13T21:14:03.639Z,53.93
2022-12-13T21:16:36.861Z,51.30
2022-12-13T21:19:05.374Z,51.57
2022-12-13T21:21:33.292Z,50.83
2022-12-13T21:24:00.932Z,49.40
2022-12-13T21:26:34.981Z,53.90
2022-12-13T21:29:05.594Z,51.90
2022-12-13T21:31:33.352Z,51.77
2022-12-13T21:34:02.862Z,51.60
2022-12-13T21:36:31.917Z,49.60
2022-12-13T21:39:01.267Z,51.70
2022-12-13T21:41:30.539Z,52.80
2022-12-13T21:44:00.186Z,53.30
2022-12-13T21:46:54.758Z,53.10
2022-12-13T21:49:17.462Z,53.23
2022-12-13T21:51:48.114Z,52.27
2022-12-13T21:54:16.470Z,53.17
2022-12-13T21:57:02.086Z,51.40
2022-12-13T21:59:29.698Z,51.17
2022-12-13T22:02:15.485Z,52.47
2022-12-13T22:04:44.569Z,52.43
2022-12-13T22:07:14.586Z,54.50
2022-12-13T22:09:42.511Z,53.43
2022-12-13T22:12:18.814Z,52.63
2022-12-13T22:14:46.661Z,52.20
2022-12-13T22:17:15.018Z,54.10
2022-12-13T22:19:42.704Z,50.17
2022-12-13T22:22:11.025Z,50.77
2022-12-13T22:24:38.780Z,51.60
2022-12-13T22:27:06.364Z,50.30
2022-12-13T22:29:35.319Z,51.70
2022-12-13T22:32:03.064Z,51.63
2022-12-13T22:34:31.593Z,50.20
2022-12-13T22:36:59.357Z,52.33
2022-12-13T22:39:27.115Z,48.87
2022-12-13T22:41:54.694Z,52.13
2022-12-13T22:44:22.397Z,51.80
2022-12-13T22:46:51.372Z,49.97
2022-12-13T22:49:19.215Z,49.67
2022-12-13T22:51:46.909Z,51.20
2022-12-13T22:54:14.855Z,52.77
2022-12-13T22:56:42.519Z,49.67
2022-12-13T22:59:10.112Z,48.97
2022-12-13T23:01:40.508Z,51.23
2022-12-13T23:04:12.198Z,51.43
2022-12-13T23:06:41.014Z,53.20
2022-12-13T23:09:12.345Z,51.47
2022-12-13T23:11:57.925Z,50.80
2022-12-13T23:14:27.923Z,49.17
2022-12-13T23:16:55.742Z,48.90
2022-12-13T23:19:48.768Z,50.43
2022-12-13T23:22:12.441Z,48.37
2022-12-13T23:24:40.025Z,47.10
2022-12-13T23:27:07.768Z,51.57
2022-12-13T23:29:35.434Z,50.93
2022-12-13T23:32:03.022Z,49.80
2022-12-13T23:34:32.292Z,52.07
2022-12-13T23:36:59.939Z,48.73
2022-12-13T23:39:27.891Z,50.83
2022-12-13T23:41:55.492Z,49.37
2022-12-13T23:44:23.273Z,48.60
2022-12-13T23:46:50.880Z,51.00
2022-12-13T23:49:20.309Z,49.60
2022-12-13T23:51:49.237Z,49.40
2022-12-13T23:54:19.456Z,48.90
2022-12-13T23:56:47.624Z,50.70
2022-12-13T23:59:15.454Z,49.77
